sensor_id;sensor_type;location;lat;lon;timestamp;temperature;humidity
7192;DHT22;3637;51.494;11.958;2023-03-12T00:01:41;1.40;99.90
7192;DHT22;3637;51.494;11.958;2023-03-12T00:04:43;1.20;99.90
7192;DHT22;3637;51.494;11.958;2023-03-12T00:07:45;1.20;99.90
7192;DHT22;3637;51.494;11.958;2023-03-12T00:10:47;1.10;99.90
7192;DHT22;3637;51.494;11.958;2023-03-12T00:13:49;1.20;99.90
7192;DHT22;3637;51.494;11.958;2023-03-12T00:16:53;1.20;99.90
7192;DHT22;3637;51.494;11.958;2023-03-12T00:19:55;1.10;99.90
7192;DHT22;3637;51.494;11.958;2023-03-12T00:22:57;1.10;99.90
7192;DHT22;3637;51.494;11.958;2023-03-12T00:26:00;1.10;99.90
7192;DHT22;3637;51.494;11.958;2023-03-12T00:29:03;1.10;99.90
7192;DHT22;3637;51.494;11.958;2023-03-12T00:32:07;1.00;99.90
7192;DHT22;3637;51.494;11.958;2023-03-12T00:35:09;1.40;99.90
7192;DHT22;3637;51.494;11.958;2023-03-12T00:38:11;1.00;99.90
7192;DHT22;3637;51.494;11.958;2023-03-12T00:41:13;1.10;99.90
7192;DHT22;3637;51.494;11.958;2023-03-12T00:44:14;1.10;99.90
7192;DHT22;3637;51.494;11.958;2023-03-12T00:47:18;1.00;99.90
7192;DHT22;3637;51.494;11.958;2023-03-12T00:50:20;1.00;99.90
7192;DHT22;3637;51.494;11.958;2023-03-12T00:53:22;1.00;99.90
7192;DHT22;3637;51.494;11.958;2023-03-12T00:56:24;1.00;99.90
7192;DHT22;3637;51.494;11.958;2023-03-12T00:59:26;1.00;99.90
7192;DHT22;3637;51.494;11.958;2023-03-12T01:02:29;1.80;99.90
7192;DHT22;3637;51.494;11.958;2023-03-12T01:05:31;1.10;99.90
7192;DHT22;3637;51.494;11.958;2023-03-12T01:08:37;1.10;99.90
7192;DHT22;3637;51.494;11.958;2023-03-12T01:11:39;1.10;99.90
7192;DHT22;3637;51.494;11.958;2023-03-12T01:14:41;1.10;99.90
7192;DHT22;3637;51.494;11.958;2023-03-12T01:17:44;1.00;99.90
7192;DHT22;3637;51.494;11.958;2023-03-12T01:20:46;0.90;99.90
7192;DHT22;3637;51.494;11.958;2023-03-12T01:23:48;1.00;99.90
7192;DHT22;3637;51.494;11.958;2023-03-12T01:26:49;1.80;99.90
7192;DHT22;3637;51.494;11.958;2023-03-12T01:29:51;1.00;99.90
7192;DHT22;3637;51.494;11.958;2023-03-12T01:32:55;1.60;99.90
7192;DHT22;3637;51.494;11.958;2023-03-12T01:35:56;0.80;99.90
7192;DHT22;3637;51.494;11.958;2023-03-12T01:39:01;0.90;99.90
7192;DHT22;3637;51.494;11.958;2023-03-12T01:42:03;0.90;99.90
7192;DHT22;3637;51.494;11.958;2023-03-12T01:48:24;1.00;99.90
7192;DHT22;3637;51.494;11.958;2023-03-12T01:51:30;1.80;99.90
7192;DHT22;3637;51.494;11.958;2023-03-12T01:54:35;1.00;99.90
7192;DHT22;3637;51.494;11.958;2023-03-12T01:57:41;1.00;99.90
7192;DHT22;3637;51.494;11.958;2023-03-12T02:00:44;1.10;99.90
7192;DHT22;3637;51.494;11.958;2023-03-12T02:03:48;1.00;99.90
7192;DHT22;3637;51.494;11.958;2023-03-12T02:06:57;1.40;99.90
7192;DHT22;3637;51.494;11.958;2023-03-12T02:10:03;1.00;99.90
7192;DHT22;3637;51.494;11.958;2023-03-12T02:13:05;0.90;99.90
7192;DHT22;3637;51.494;11.958;2023-03-12T02:16:08;0.90;99.90
7192;DHT22;3637;51.494;11.958;2023-03-12T02:19:17;0.90;99.90
7192;DHT22;3637;51.494;11.958;2023-03-12T02:22:20;0.90;99.90
7192;DHT22;3637;51.494;11.958;2023-03-12T02:25:29;0.90;99.90
7192;DHT22;3637;51.494;11.958;2023-03-12T02:28:35;0.80;99.90
7192;DHT22;3637;51.494;11.958;2023-03-12T02:31:47;0.80;99.90
7192;DHT22;3637;51.494;11.958;2023-03-12T02:34:51;0.80;99.90
7192;DHT22;3637;51.494;11.958;2023-03-12T02:37:54;0.70;99.90
7192;DHT22;3637;51.494;11.958;2023-03-12T02:41:01;0.70;99.90
7192;DHT22;3637;51.494;11.958;2023-03-12T02:44:07;0.70;99.90
7192;DHT22;3637;51.494;11.958;2023-03-12T02:47:10;0.70;99.90
7192;DHT22;3637;51.494;11.958;2023-03-12T02:50:12;0.70;99.90
7192;DHT22;3637;51.494;11.958;2023-03-12T02:53:14;0.70;99.90
7192;DHT22;3637;51.494;11.958;2023-03-12T02:56:17;0.70;99.90
7192;DHT22;3637;51.494;11.958;2023-03-12T02:59:20;0.20;99.90
7192;DHT22;3637;51.494;11.958;2023-03-12T03:02:22;1.00;99.90
7192;DHT22;3637;51.494;11.958;2023-03-12T03:05:24;0.60;99.90
7192;DHT22;3637;51.494;11.958;2023-03-12T03:08:25;1.90;99.90
7192;DHT22;3637;51.494;11.958;2023-03-12T03:11:29;0.60;99.90
7192;DHT22;3637;51.494;11.958;2023-03-12T03:14:30;0.60;99.90
7192;DHT22;3637;51.494;11.958;2023-03-12T03:17:32;0.60;99.90
7192;DHT22;3637;51.494;11.958;2023-03-12T03:20:34;0.60;99.90
7192;DHT22;3637;51.494;11.958;2023-03-12T03:23:36;0.70;99.90
7192;DHT22;3637;51.494;11.958;2023-03-12T03:26:39;0.60;99.90
7192;DHT22;3637;51.494;11.958;2023-03-12T03:29:41;0.70;99.90
7192;DHT22;3637;51.494;11.958;2023-03-12T03:32:43;1.90;99.90
7192;DHT22;3637;51.494;11.958;2023-03-12T03:35:45;0.60;99.90
7192;DHT22;3637;51.494;11.958;2023-03-12T03:38:48;0.60;99.90
7192;DHT22;3637;51.494;11.958;2023-03-12T03:41:51;0.60;99.90
7192;DHT22;3637;51.494;11.958;2023-03-12T03:44:53;0.70;99.90
7192;DHT22;3637;51.494;11.958;2023-03-12T03:47:55;0.60;99.90
7192;DHT22;3637;51.494;11.958;2023-03-12T03:50:59;0.60;99.90
7192;DHT22;3637;51.494;11.958;2023-03-12T03:54:01;0.60;99.90
7192;DHT22;3637;51.494;11.958;2023-03-12T03:57:04;1.20;99.90
7192;DHT22;3637;51.494;11.958;2023-03-12T04:00:08;1.00;99.90
7192;DHT22;3637;51.494;11.958;2023-03-12T04:03:12;0.60;99.90
7192;DHT22;3637;51.494;11.958;2023-03-12T04:06:14;0.60;99.90
7192;DHT22;3637;51.494;11.958;2023-03-12T04:09:16;0.60;99.90
7192;DHT22;3637;51.494;11.958;2023-03-12T04:12:19;0.60;99.90
7192;DHT22;3637;51.494;11.958;2023-03-12T04:15:23;0.50;99.90
7192;DHT22;3637;51.494;11.958;2023-03-12T04:18:25;0.50;99.90
7192;DHT22;3637;51.494;11.958;2023-03-12T04:21:29;0.50;99.90
7192;DHT22;3637;51.494;11.958;2023-03-12T04:24:30;0.50;99.90
7192;DHT22;3637;51.494;11.958;2023-03-12T04:27:34;0.50;99.90
7192;DHT22;3637;51.494;11.958;2023-03-12T04:30:36;0.50;99.90
7192;DHT22;3637;51.494;11.958;2023-03-12T04:33:38;0.40;99.90
7192;DHT22;3637;51.494;11.958;2023-03-12T04:36:40;0.50;99.90
7192;DHT22;3637;51.494;11.958;2023-03-12T04:39:43;0.50;99.90
7192;DHT22;3637;51.494;11.958;2023-03-12T04:42:46;0.60;99.90
7192;DHT22;3637;51.494;11.958;2023-03-12T04:45:48;0.50;99.90
7192;DHT22;3637;51.494;11.958;2023-03-12T04:48:50;0.40;99.90
7192;DHT22;3637;51.494;11.958;2023-03-12T04:51:52;0.30;99.90
7192;DHT22;3637;51.494;11.958;2023-03-12T04:54:54;0.40;99.90
7192;DHT22;3637;51.494;11.958;2023-03-12T04:57:57;0.30;99.90
7192;DHT22;3637;51.494;11.958;2023-03-12T05:00:59;0.20;99.90
7192;DHT22;3637;51.494;11.958;2023-03-12T05:04:01;0.30;99.90
7192;DHT22;3637;51.494;11.958;2023-03-12T05:07:03;0.30;99.90
7192;DHT22;3637;51.494;11.958;2023-03-12T05:10:06;0.40;99.90
7192;DHT22;3637;51.494;11.958;2023-03-12T05:13:14;0.40;99.90
7192;DHT22;3637;51.494;11.958;2023-03-12T05:16:16;0.40;99.90
7192;DHT22;3637;51.494;11.958;2023-03-12T05:19:18;0.40;99.90
7192;DHT22;3637;51.494;11.958;2023-03-12T05:22:20;0.40;99.90
7192;DHT22;3637;51.494;11.958;2023-03-12T05:25:22;0.30;99.90
7192;DHT22;3637;51.494;11.958;2023-03-12T05:28:25;0.40;99.90
7192;DHT22;3637;51.494;11.958;2023-03-12T05:31:28;0.30;99.90
7192;DHT22;3637;51.494;11.958;2023-03-12T05:34:34;0.30;99.90
7192;DHT22;3637;51.494;11.958;2023-03-12T05:37:36;0.30;99.90
7192;DHT22;3637;51.494;11.958;2023-03-12T05:40:38;0.30;99.90
7192;DHT22;3637;51.494;11.958;2023-03-12T05:43:42;0.30;99.90
7192;DHT22;3637;51.494;11.958;2023-03-12T05:46:44;0.30;99.90
7192;DHT22;3637;51.494;11.958;2023-03-12T05:49:46;0.30;99.90
7192;DHT22;3637;51.494;11.958;2023-03-12T05:52:50;0.30;99.90
7192;DHT22;3637;51.494;11.958;2023-03-12T05:55:52;0.30;99.90
7192;DHT22;3637;51.494;11.958;2023-03-12T05:58:55;0.30;99.90
7192;DHT22;3637;51.494;11.958;2023-03-12T06:01:57;0.80;99.90
7192;DHT22;3637;51.494;11.958;2023-03-12T06:04:59;0.40;99.90
7192;DHT22;3637;51.494;11.958;2023-03-12T06:08:01;0.50;99.90
7192;DHT22;3637;51.494;11.958;2023-03-12T06:11:04;0.50;99.90
7192;DHT22;3637;51.494;11.958;2023-03-12T06:14:07;1.00;99.90
7192;DHT22;3637;51.494;11.958;2023-03-12T06:17:08;1.30;99.90
7192;DHT22;3637;51.494;11.958;2023-03-12T06:20:11;0.60;99.90
7192;DHT22;3637;51.494;11.958;2023-03-12T06:23:13;0.70;99.90
7192;DHT22;3637;51.494;11.958;2023-03-12T06:26:15;0.60;99.90
7192;DHT22;3637;51.494;11.958;2023-03-12T06:29:19;0.70;99.90
7192;DHT22;3637;51.494;11.958;2023-03-12T06:32:21;0.70;99.90
7192;DHT22;3637;51.494;11.958;2023-03-12T06:35:22;0.70;99.90
7192;DHT22;3637;51.494;11.958;2023-03-12T06:38:25;0.80;99.90
7192;DHT22;3637;51.494;11.958;2023-03-12T06:41:27;0.80;99.90
7192;DHT22;3637;51.494;11.958;2023-03-12T06:44:30;0.90;99.90
7192;DHT22;3637;51.494;11.958;2023-03-12T06:47:32;1.00;99.90
7192;DHT22;3637;51.494;11.958;2023-03-12T06:50:34;1.60;99.90
7192;DHT22;3637;51.494;11.958;2023-03-12T06:53:36;1.60;99.90
7192;DHT22;3637;51.494;11.958;2023-03-12T06:56:39;1.20;99.90
7192;DHT22;3637;51.494;11.958;2023-03-12T06:59:42;2.40;99.90
7192;DHT22;3637;51.494;11.958;2023-03-12T07:02:44;1.60;99.90
7192;DHT22;3637;51.494;11.958;2023-03-12T07:05:48;1.40;99.90
7192;DHT22;3637;51.494;11.958;2023-03-12T07:08:51;1.50;99.90
7192;DHT22;3637;51.494;11.958;2023-03-12T07:11:53;1.50;99.90
7192;DHT22;3637;51.494;11.958;2023-03-12T07:14:56;1.60;99.90
7192;DHT22;3637;51.494;11.958;2023-03-12T07:17:59;1.70;99.90
7192;DHT22;3637;51.494;11.958;2023-03-12T07:21:01;1.70;99.90
7192;DHT22;3637;51.494;11.958;2023-03-12T07:24:03;1.80;99.90
7192;DHT22;3637;51.494;11.958;2023-03-12T07:27:06;2.60;99.90
7192;DHT22;3637;51.494;11.958;2023-03-12T07:30:11;2.80;99.90
7192;DHT22;3637;51.494;11.958;2023-03-12T07:33:12;2.00;99.90
7192;DHT22;3637;51.494;11.958;2023-03-12T07:36:14;2.10;99.90
7192;DHT22;3637;51.494;11.958;2023-03-12T07:39:17;2.30;99.90
7192;DHT22;3637;51.494;11.958;2023-03-12T07:42:19;2.40;99.90
7192;DHT22;3637;51.494;11.958;2023-03-12T07:45:23;3.10;99.90
7192;DHT22;3637;51.494;11.958;2023-03-12T07:48:25;2.50;99.90
7192;DHT22;3637;51.494;11.958;2023-03-12T07:51:28;2.50;99.90
7192;DHT22;3637;51.494;11.958;2023-03-12T07:54:29;2.60;99.90
7192;DHT22;3637;51.494;11.958;2023-03-12T07:57:31;2.90;99.90
7192;DHT22;3637;51.494;11.958;2023-03-12T08:00:35;3.30;99.90
7192;DHT22;3637;51.494;11.958;2023-03-12T08:03:36;2.90;99.90
7192;DHT22;3637;51.494;11.958;2023-03-12T08:06:38;3.70;99.90
7192;DHT22;3637;51.494;11.958;2023-03-12T08:09:42;3.10;99.90
7192;DHT22;3637;51.494;11.958;2023-03-12T08:12:44;3.20;99.90
7192;DHT22;3637;51.494;11.958;2023-03-12T08:15:48;3.10;99.90
7192;DHT22;3637;51.494;11.958;2023-03-12T08:18:50;3.20;99.90
7192;DHT22;3637;51.494;11.958;2023-03-12T08:21:52;3.40;99.90
7192;DHT22;3637;51.494;11.958;2023-03-12T08:24:54;3.40;99.90
7192;DHT22;3637;51.494;11.958;2023-03-12T08:27:56;4.00;99.90
7192;DHT22;3637;51.494;11.958;2023-03-12T08:30:59;3.40;99.90
7192;DHT22;3637;51.494;11.958;2023-03-12T08:34:01;3.50;99.90
7192;DHT22;3637;51.494;11.958;2023-03-12T08:37:04;3.60;99.90
7192;DHT22;3637;51.494;11.958;2023-03-12T08:40:07;3.60;99.90
7192;DHT22;3637;51.494;11.958;2023-03-12T08:43:12;3.80;99.90
7192;DHT22;3637;51.494;11.958;2023-03-12T08:46:15;4.00;99.90
7192;DHT22;3637;51.494;11.958;2023-03-12T08:49:18;4.30;99.90
7192;DHT22;3637;51.494;11.958;2023-03-12T08:52:19;4.10;99.90
7192;DHT22;3637;51.494;11.958;2023-03-12T08:55:21;4.20;99.90
7192;DHT22;3637;51.494;11.958;2023-03-12T08:58:24;4.20;99.90
7192;DHT22;3637;51.494;11.958;2023-03-12T09:01:27;4.30;99.90
7192;DHT22;3637;51.494;11.958;2023-03-12T09:04:32;4.30;99.90
7192;DHT22;3637;51.494;11.958;2023-03-12T09:07:34;4.30;99.90
7192;DHT22;3637;51.494;11.958;2023-03-12T09:10:37;4.30;99.90
7192;DHT22;3637;51.494;11.958;2023-03-12T09:13:40;4.90;99.90
7192;DHT22;3637;51.494;11.958;2023-03-12T09:16:43;4.30;99.90
7192;DHT22;3637;51.494;11.958;2023-03-12T09:19:45;4.40;99.90
7192;DHT22;3637;51.494;11.958;2023-03-12T09:22:47;4.70;99.90
7192;DHT22;3637;51.494;11.958;2023-03-12T09:25:49;4.80;99.90
7192;DHT22;3637;51.494;11.958;2023-03-12T09:28:51;4.70;99.90
7192;DHT22;3637;51.494;11.958;2023-03-12T09:31:54;4.80;99.90
7192;DHT22;3637;51.494;11.958;2023-03-12T09:34:56;5.00;99.90
7192;DHT22;3637;51.494;11.958;2023-03-12T09:37:58;5.10;99.90
7192;DHT22;3637;51.494;11.958;2023-03-12T09:41:02;5.20;99.90
7192;DHT22;3637;51.494;11.958;2023-03-12T09:44:11;5.40;99.90
7192;DHT22;3637;51.494;11.958;2023-03-12T09:47:24;5.40;99.70
7192;DHT22;3637;51.494;11.958;2023-03-12T09:50:29;5.50;99.60
7192;DHT22;3637;51.494;11.958;2023-03-12T09:53:36;5.40;99.40
7192;DHT22;3637;51.494;11.958;2023-03-12T09:56:40;5.50;99.10
7192;DHT22;3637;51.494;11.958;2023-03-12T09:59:43;5.60;99.30
7192;DHT22;3637;51.494;11.958;2023-03-12T10:03:08;5.80;99.00
7192;DHT22;3637;51.494;11.958;2023-03-12T10:06:13;5.80;98.70
7192;DHT22;3637;51.494;11.958;2023-03-12T10:09:32;5.80;98.50
7192;DHT22;3637;51.494;11.958;2023-03-12T10:12:45;5.80;98.20
7192;DHT22;3637;51.494;11.958;2023-03-12T10:15:56;6.30;97.80
7192;DHT22;3637;51.494;11.958;2023-03-12T10:19:14;5.80;98.20
7192;DHT22;3637;51.494;11.958;2023-03-12T10:22:30;5.90;97.70
7192;DHT22;3637;51.494;11.958;2023-03-12T10:25:38;6.10;97.50
7192;DHT22;3637;51.494;11.958;2023-03-12T10:28:45;6.30;96.00
7192;DHT22;3637;51.494;11.958;2023-03-12T10:31:52;6.30;94.70
7192;DHT22;3637;51.494;11.958;2023-03-12T10:34:59;6.30;95.50
7192;DHT22;3637;51.494;11.958;2023-03-12T10:38:04;6.30;94.90
7192;DHT22;3637;51.494;11.958;2023-03-12T10:41:18;6.20;93.40
7192;DHT22;3637;51.494;11.958;2023-03-12T10:44:22;6.40;93.90
7192;DHT22;3637;51.494;11.958;2023-03-12T10:47:32;6.50;93.80
7192;DHT22;3637;51.494;11.958;2023-03-12T10:50:39;6.50;93.30
7192;DHT22;3637;51.494;11.958;2023-03-12T10:53:42;6.50;92.30
7192;DHT22;3637;51.494;11.958;2023-03-12T10:56:48;6.40;92.30
7192;DHT22;3637;51.494;11.958;2023-03-12T10:59:50;6.50;92.30
7192;DHT22;3637;51.494;11.958;2023-03-12T11:02:58;6.60;91.10
7192;DHT22;3637;51.494;11.958;2023-03-12T11:06:02;6.50;91.00
7192;DHT22;3637;51.494;11.958;2023-03-12T11:09:13;6.60;90.70
7192;DHT22;3637;51.494;11.958;2023-03-12T11:12:25;6.60;90.70
7192;DHT22;3637;51.494;11.958;2023-03-12T11:15:30;6.70;90.90
7192;DHT22;3637;51.494;11.958;2023-03-12T11:18:37;7.10;91.20
7192;DHT22;3637;51.494;11.958;2023-03-12T11:21:54;6.60;92.40
7192;DHT22;3637;51.494;11.958;2023-03-12T11:24:58;6.70;92.20
7192;DHT22;3637;51.494;11.958;2023-03-12T11:28:04;6.80;92.50
7192;DHT22;3637;51.494;11.958;2023-03-12T11:31:09;6.80;92.60
7192;DHT22;3637;51.494;11.958;2023-03-12T11:34:20;8.20;92.00
7192;DHT22;3637;51.494;11.958;2023-03-12T11:37:30;6.70;92.80
7192;DHT22;3637;51.494;11.958;2023-03-12T11:40:51;6.80;93.20
7192;DHT22;3637;51.494;11.958;2023-03-12T11:44:05;6.80;92.30
7192;DHT22;3637;51.494;11.958;2023-03-12T11:47:18;6.50;92.20
7192;DHT22;3637;51.494;11.958;2023-03-12T11:50:40;7.10;91.30
7192;DHT22;3637;51.494;11.958;2023-03-12T11:57:13;6.60;91.10
7192;DHT22;3637;51.494;11.958;2023-03-12T12:00:21;7.00;91.90
7192;DHT22;3637;51.494;11.958;2023-03-12T12:03:38;6.70;92.10
7192;DHT22;3637;51.494;11.958;2023-03-12T12:06:54;6.70;91.80
7192;DHT22;3637;51.494;11.958;2023-03-12T12:10:03;6.70;92.50
7192;DHT22;3637;51.494;11.958;2023-03-12T12:13:11;6.60;91.90
7192;DHT22;3637;51.494;11.958;2023-03-12T12:16:25;7.00;91.70
7192;DHT22;3637;51.494;11.958;2023-03-12T12:19:41;6.40;92.50
7192;DHT22;3637;51.494;11.958;2023-03-12T12:22:54;7.60;92.70
7192;DHT22;3637;51.494;11.958;2023-03-12T12:26:07;6.50;92.80
7192;DHT22;3637;51.494;11.958;2023-03-12T12:29:19;6.20;94.40
7192;DHT22;3637;51.494;11.958;2023-03-12T12:32:31;6.50;94.40
7192;DHT22;3637;51.494;11.958;2023-03-12T12:35:36;6.40;93.40
7192;DHT22;3637;51.494;11.958;2023-03-12T12:38:40;6.60;93.80
7192;DHT22;3637;51.494;11.958;2023-03-12T12:41:49;6.50;93.50
7192;DHT22;3637;51.494;11.958;2023-03-12T12:44:53;6.90;93.40
7192;DHT22;3637;51.494;11.958;2023-03-12T12:47:59;6.50;93.20
7192;DHT22;3637;51.494;11.958;2023-03-12T12:51:03;6.30;93.50
7192;DHT22;3637;51.494;11.958;2023-03-12T12:54:10;6.50;93.80
7192;DHT22;3637;51.494;11.958;2023-03-12T12:57:30;6.50;94.20
7192;DHT22;3637;51.494;11.958;2023-03-12T13:00:39;6.60;95.10
7192;DHT22;3637;51.494;11.958;2023-03-12T13:03:44;6.40;95.50
7192;DHT22;3637;51.494;11.958;2023-03-12T13:06:55;6.50;96.00
7192;DHT22;3637;51.494;11.958;2023-03-12T13:09:58;6.30;97.00
7192;DHT22;3637;51.494;11.958;2023-03-12T13:13:07;6.30;97.30
7192;DHT22;3637;51.494;11.958;2023-03-12T13:16:18;6.30;97.90
7192;DHT22;3637;51.494;11.958;2023-03-12T13:19:24;6.40;98.00
7192;DHT22;3637;51.494;11.958;2023-03-12T13:22:39;6.30;99.40
7192;DHT22;3637;51.494;11.958;2023-03-12T13:25:53;6.30;99.90
7192;DHT22;3637;51.494;11.958;2023-03-12T13:29:12;6.00;99.90
7192;DHT22;3637;51.494;11.958;2023-03-12T13:32:37;5.80;99.90
7192;DHT22;3637;51.494;11.958;2023-03-12T13:36:18;5.70;99.90
7192;DHT22;3637;51.494;11.958;2023-03-12T13:39:28;5.70;99.90
7192;DHT22;3637;51.494;11.958;2023-03-12T13:42:37;5.70;99.90
7192;DHT22;3637;51.494;11.958;2023-03-12T13:45:55;6.50;99.90
7192;DHT22;3637;51.494;11.958;2023-03-12T13:49:01;6.30;99.90
7192;DHT22;3637;51.494;11.958;2023-03-12T13:52:21;5.80;99.90
7192;DHT22;3637;51.494;11.958;2023-03-12T13:55:25;6.00;99.90
7192;DHT22;3637;51.494;11.958;2023-03-12T13:58:27;6.00;99.90
7192;DHT22;3637;51.494;11.958;2023-03-12T14:01:35;6.50;99.90
7192;DHT22;3637;51.494;11.958;2023-03-12T14:04:39;6.10;99.90
7192;DHT22;3637;51.494;11.958;2023-03-12T14:08:08;7.10;99.90
7192;DHT22;3637;51.494;11.958;2023-03-12T14:11:32;6.00;99.90
7192;DHT22;3637;51.494;11.958;2023-03-12T14:18:12;7.00;99.90
7192;DHT22;3637;51.494;11.958;2023-03-12T14:21:16;5.90;99.90
7192;DHT22;3637;51.494;11.958;2023-03-12T14:24:23;5.90;99.90
7192;DHT22;3637;51.494;11.958;2023-03-12T14:27:28;5.80;99.90
7192;DHT22;3637;51.494;11.958;2023-03-12T14:30:40;5.90;99.90
7192;DHT22;3637;51.494;11.958;2023-03-12T14:33:50;6.00;99.90
7192;DHT22;3637;51.494;11.958;2023-03-12T14:36:59;6.10;99.90
7192;DHT22;3637;51.494;11.958;2023-03-12T14:40:02;6.50;99.90
7192;DHT22;3637;51.494;11.958;2023-03-12T14:43:26;6.20;99.90
7192;DHT22;3637;51.494;11.958;2023-03-12T14:46:28;6.80;99.90
7192;DHT22;3637;51.494;11.958;2023-03-12T14:49:37;6.10;99.90
7192;DHT22;3637;51.494;11.958;2023-03-12T14:52:39;6.10;99.90
7192;DHT22;3637;51.494;11.958;2023-03-12T14:55:44;6.00;99.90
7192;DHT22;3637;51.494;11.958;2023-03-12T14:58:49;5.90;99.90
7192;DHT22;3637;51.494;11.958;2023-03-12T15:01:51;6.70;99.90
7192;DHT22;3637;51.494;11.958;2023-03-12T15:04:59;5.80;99.90
7192;DHT22;3637;51.494;11.958;2023-03-12T15:08:02;5.70;99.90
7192;DHT22;3637;51.494;11.958;2023-03-12T15:11:04;5.70;99.90
7192;DHT22;3637;51.494;11.958;2023-03-12T15:14:13;5.70;99.90
7192;DHT22;3637;51.494;11.958;2023-03-12T15:17:18;5.80;99.90
7192;DHT22;3637;51.494;11.958;2023-03-12T15:20:23;5.90;99.90
7192;DHT22;3637;51.494;11.958;2023-03-12T15:23:28;5.90;99.90
7192;DHT22;3637;51.494;11.958;2023-03-12T15:26:32;5.90;99.90
7192;DHT22;3637;51.494;11.958;2023-03-12T15:29:39;7.10;99.90
7192;DHT22;3637;51.494;11.958;2023-03-12T15:32:41;5.80;99.90
7192;DHT22;3637;51.494;11.958;2023-03-12T15:36:24;5.90;99.90
7192;DHT22;3637;51.494;11.958;2023-03-12T15:39:28;5.90;99.90
7192;DHT22;3637;51.494;11.958;2023-03-12T15:42:36;5.80;99.90
7192;DHT22;3637;51.494;11.958;2023-03-12T15:45:39;5.80;99.90
7192;DHT22;3637;51.494;11.958;2023-03-12T15:48:46;5.80;99.90
7192;DHT22;3637;51.494;11.958;2023-03-12T15:52:04;5.90;99.90
7192;DHT22;3637;51.494;11.958;2023-03-12T15:55:21;5.90;99.90
7192;DHT22;3637;51.494;11.958;2023-03-12T15:58:26;6.50;99.90
7192;DHT22;3637;51.494;11.958;2023-03-12T16:01:29;7.10;99.90
7192;DHT22;3637;51.494;11.958;2023-03-12T16:04:31;5.90;99.90
7192;DHT22;3637;51.494;11.958;2023-03-12T16:07:34;5.80;99.90
7192;DHT22;3637;51.494;11.958;2023-03-12T16:10:37;5.90;99.90
7192;DHT22;3637;51.494;11.958;2023-03-12T16:13:39;6.10;99.90
7192;DHT22;3637;51.494;11.958;2023-03-12T16:16:41;6.00;99.90
7192;DHT22;3637;51.494;11.958;2023-03-12T16:19:43;5.90;99.90
7192;DHT22;3637;51.494;11.958;2023-03-12T16:22:46;6.00;99.90
7192;DHT22;3637;51.494;11.958;2023-03-12T16:25:50;6.00;99.90
7192;DHT22;3637;51.494;11.958;2023-03-12T16:28:52;6.00;99.90
7192;DHT22;3637;51.494;11.958;2023-03-12T16:31:54;6.00;99.90
7192;DHT22;3637;51.494;11.958;2023-03-12T16:34:56;6.10;99.90
7192;DHT22;3637;51.494;11.958;2023-03-12T16:38:00;7.20;99.90
7192;DHT22;3637;51.494;11.958;2023-03-12T16:41:02;6.10;99.90
7192;DHT22;3637;51.494;11.958;2023-03-12T16:44:05;6.10;99.90
7192;DHT22;3637;51.494;11.958;2023-03-12T16:47:09;6.00;99.90
7192;DHT22;3637;51.494;11.958;2023-03-12T16:50:14;6.00;99.90
7192;DHT22;3637;51.494;11.958;2023-03-12T16:53:25;6.40;99.90
7192;DHT22;3637;51.494;11.958;2023-03-12T16:56:27;6.60;99.90
7192;DHT22;3637;51.494;11.958;2023-03-12T16:59:29;5.90;99.90
7192;DHT22;3637;51.494;11.958;2023-03-12T17:02:33;6.10;99.90
7192;DHT22;3637;51.494;11.958;2023-03-12T17:05:35;6.20;99.90
7192;DHT22;3637;51.494;11.958;2023-03-12T17:08:38;6.20;99.90
7192;DHT22;3637;51.494;11.958;2023-03-12T17:11:39;6.20;99.90
7192;DHT22;3637;51.494;11.958;2023-03-12T17:14:41;6.20;99.90
7192;DHT22;3637;51.494;11.958;2023-03-12T17:17:43;6.20;99.90
7192;DHT22;3637;51.494;11.958;2023-03-12T17:20:46;6.20;99.90
7192;DHT22;3637;51.494;11.958;2023-03-12T17:23:50;6.80;99.90
7192;DHT22;3637;51.494;11.958;2023-03-12T17:26:52;6.20;99.90
7192;DHT22;3637;51.494;11.958;2023-03-12T17:29:54;6.80;99.90
7192;DHT22;3637;51.494;11.958;2023-03-12T17:33:00;6.30;99.90
7192;DHT22;3637;51.494;11.958;2023-03-12T17:36:04;6.90;99.90
7192;DHT22;3637;51.494;11.958;2023-03-12T17:39:08;6.30;99.90
7192;DHT22;3637;51.494;11.958;2023-03-12T17:42:13;6.30;99.90
7192;DHT22;3637;51.494;11.958;2023-03-12T17:45:15;6.60;99.90
7192;DHT22;3637;51.494;11.958;2023-03-12T17:48:17;6.10;99.90
7192;DHT22;3637;51.494;11.958;2023-03-12T17:51:19;7.80;99.90
7192;DHT22;3637;51.494;11.958;2023-03-12T17:54:23;6.40;99.90
7192;DHT22;3637;51.494;11.958;2023-03-12T17:57:27;6.90;99.90
7192;DHT22;3637;51.494;11.958;2023-03-12T18:00:29;6.60;99.90
7192;DHT22;3637;51.494;11.958;2023-03-12T18:03:31;7.50;99.90
7192;DHT22;3637;51.494;11.958;2023-03-12T18:06:33;6.70;99.90
7192;DHT22;3637;51.494;11.958;2023-03-12T18:09:54;6.30;99.90
7192;DHT22;3637;51.494;11.958;2023-03-12T18:12:55;6.30;99.90
7192;DHT22;3637;51.494;11.958;2023-03-12T18:15:57;6.10;99.90
7192;DHT22;3637;51.494;11.958;2023-03-12T18:18:59;6.30;99.90
7192;DHT22;3637;51.494;11.958;2023-03-12T18:22:01;5.90;99.90
7192;DHT22;3637;51.494;11.958;2023-03-12T18:25:06;6.40;99.90
7192;DHT22;3637;51.494;11.958;2023-03-12T18:28:08;6.30;99.90
7192;DHT22;3637;51.494;11.958;2023-03-12T18:31:10;6.70;99.90
7192;DHT22;3637;51.494;11.958;2023-03-12T18:34:12;6.40;99.90
7192;DHT22;3637;51.494;11.958;2023-03-12T18:37:15;6.70;99.90
7192;DHT22;3637;51.494;11.958;2023-03-12T18:40:18;7.00;99.90
7192;DHT22;3637;51.494;11.958;2023-03-12T18:43:20;7.00;99.90
7192;DHT22;3637;51.494;11.958;2023-03-12T18:46:24;6.50;99.90
7192;DHT22;3637;51.494;11.958;2023-03-12T18:49:26;7.10;99.90
7192;DHT22;3637;51.494;11.958;2023-03-12T18:52:28;6.50;99.90
7192;DHT22;3637;51.494;11.958;2023-03-12T18:55:31;6.80;99.90
7192;DHT22;3637;51.494;11.958;2023-03-12T18:58:33;7.20;99.90
7192;DHT22;3637;51.494;11.958;2023-03-12T19:01:34;6.60;99.90
7192;DHT22;3637;51.494;11.958;2023-03-12T19:04:37;6.50;99.90
7192;DHT22;3637;51.494;11.958;2023-03-12T19:07:39;6.60;99.90
7192;DHT22;3637;51.494;11.958;2023-03-12T19:10:42;6.70;99.90
7192;DHT22;3637;51.494;11.958;2023-03-12T19:13:49;6.90;99.90
7192;DHT22;3637;51.494;11.958;2023-03-12T19:16:53;7.20;99.90
7192;DHT22;3637;51.494;11.958;2023-03-12T19:20:02;7.30;99.90
7192;DHT22;3637;51.494;11.958;2023-03-12T19:23:05;6.20;99.90
7192;DHT22;3637;51.494;11.958;2023-03-12T19:26:08;7.20;99.90
7192;DHT22;3637;51.494;11.958;2023-03-12T19:29:10;7.30;99.90
7192;DHT22;3637;51.494;11.958;2023-03-12T19:32:12;6.60;99.90
7192;DHT22;3637;51.494;11.958;2023-03-12T19:35:14;6.80;99.90
7192;DHT22;3637;51.494;11.958;2023-03-12T19:38:16;6.60;99.90
7192;DHT22;3637;51.494;11.958;2023-03-12T19:41:19;7.10;99.90
7192;DHT22;3637;51.494;11.958;2023-03-12T19:44:21;6.60;99.90
7192;DHT22;3637;51.494;11.958;2023-03-12T19:47:22;7.80;99.90
7192;DHT22;3637;51.494;11.958;2023-03-12T19:50:26;6.80;99.90
7192;DHT22;3637;51.494;11.958;2023-03-12T19:53:30;6.70;99.90
7192;DHT22;3637;51.494;11.958;2023-03-12T19:56:35;7.30;99.90
7192;DHT22;3637;51.494;11.958;2023-03-12T19:59:37;6.70;99.90
7192;DHT22;3637;51.494;11.958;2023-03-12T20:02:38;6.80;99.90
7192;DHT22;3637;51.494;11.958;2023-03-12T20:05:41;6.80;99.90
7192;DHT22;3637;51.494;11.958;2023-03-12T20:08:44;7.10;99.90
7192;DHT22;3637;51.494;11.958;2023-03-12T20:11:49;6.90;99.90
7192;DHT22;3637;51.494;11.958;2023-03-12T20:14:51;6.90;99.90
7192;DHT22;3637;51.494;11.958;2023-03-12T20:17:53;6.90;99.90